Camp Douglas, WI (54637)

21:27 CST le 28 novembre 2014 (GMT -0600)
Volk | Change Station
CLOSE
Current Station
Aéroport
Location: Volk,
Altitude: 909 ft
Stations météo à proximité

Alt. 909 ft 43.94 °N, 90.25 °W | Updated 14 minutes ago

Mostly Cloudy
Nuageux
23 ° F
Paraît 16 ° F
N
6
Vent Variable Vent de Est

Aujourd'hui
Haut(e) -- | Bas -- ° F
--% Risque de précip.
Hier
Haut(e) -- | Bas -- ° F
Precip. -- pouce
7:12 AM 4:25 PM
Lune montante, 47% visible
Pression 29.84 pouce
Visibilité 10.0 Miles terrestres
Nuages Nuageux 1300 ft
Refroidissement éolien 16 ° F
Point de rosée 23 ° F
Humidité 100%
Précipitations 0.00 pouce
Profondeur de la couche neigeuse Non disponible.
UV 0 sur 12
Pollen .10 sur 12
Qualité de l'air Non disponible.
Flu Activity Non disponible.
SPECI KVOK 290313Z AUTO 09005KT 10SM BKN013 M05/M05 A2984 RMK AO2 BKN V FEW

More Conditions Fewer Conditions

Pression 29.84 pouce
Visibilité 10.0 Miles terrestres
Nuages Nuageux 1300 ft
Refroidissement éolien 16 ° F
Point de rosée 23 ° F
Humidité 100%
Précipitations 0.00 pouce
Profondeur de la couche neigeuse Non disponible.
UV 0 sur 12
Pollen .10 sur 12
Qualité de l'air Non disponible.
Flu Activity Non disponible.
SPECI KVOK 290313Z AUTO 09005KT 10SM BKN013 M05/M05 A2984 RMK AO2 BKN V FEW

More Conditions Fewer Conditions

10-Day Weather Forecast

Almanac

Astronomie

Nov. 28, 2014 Lever Coucher
Temps réel
Crépuscule civil
Crépuscule nautique
Crépuscule astronomique
Lune
Durée de lumière visible
Longueur du jour
Tomorrow will be .
, % of the Moon is Illuminated

Extrêmes aujourd'hui

State Highs State Lows

Community

WunderPhotos

Upload Photos

1,774,383 Photos téléchargées !

WunderBlogs® & News

Nearby

Qualité de l'air

  Qualité de l'air Indice de la qualité de l'air Polluant
Not available.

Épaisseur de neige

Station Depth Altitude

Activité sismique

Ville Distance Mag. Time & Date
Minimum magnitude displayed is 2.5.

Températures des eaux côtières

Lieu Température

Stations météo à proximité